createdAt,value
2022-12-22T00:01:32.140Z,97878.61
2022-12-22T00:04:53.930Z,97881.06
2022-12-22T00:08:15.818Z,97884.58
2022-12-22T00:11:45.638Z,97879.70
2022-12-22T00:15:08.143Z,97881.44
2022-12-22T00:18:34.124Z,97889.85
2022-12-22T00:21:55.975Z,97879.61
2022-12-22T00:25:18.056Z,97880.13
2022-12-22T00:28:39.728Z,97877.26
2022-12-22T00:32:02.745Z,97879.28
2022-12-22T00:35:29.875Z,97876.23
2022-12-22T00:38:51.774Z,97878.77
2022-12-22T00:42:13.508Z,97882.30
2022-12-22T00:45:35.273Z,97882.59
2022-12-22T00:49:00.730Z,97889.94
2022-12-22T00:52:23.799Z,97894.59
2022-12-22T00:55:49.442Z,97889.55
2022-12-22T00:59:14.612Z,97891.38
2022-12-22T01:02:36.976Z,97886.10
2022-12-22T01:05:58.709Z,97883.64
2022-12-22T01:09:20.329Z,97883.42
2022-12-22T01:12:45.972Z,97880.18
2022-12-22T01:16:07.875Z,97880.85
2022-12-22T01:19:30.106Z,97879.92
2022-12-22T01:22:52.192Z,97880.52
2022-12-22T01:26:14.460Z,97874.25
2022-12-22T01:29:36.615Z,97869.54
2022-12-22T01:32:58.563Z,97873.02
2022-12-22T01:36:20.339Z,97862.48
2022-12-22T01:39:42.463Z,97859.13
2022-12-22T01:43:04.202Z,97855.35
2022-12-22T01:46:43.193Z,97848.67
2022-12-22T01:50:05.088Z,97846.30
2022-12-22T01:53:31.225Z,97846.02
2022-12-22T01:56:53.652Z,97854.78
2022-12-22T02:00:15.453Z,97856.70
2022-12-22T02:03:40.876Z,97850.77
2022-12-22T02:07:05.551Z,97849.03
2022-12-22T02:10:40.754Z,97840.91
2022-12-22T02:14:31.917Z,97836.02
2022-12-22T02:18:02.295Z,97837.20
2022-12-22T02:21:29.327Z,97843.91
2022-12-22T02:25:00.621Z,97852.83
2022-12-22T02:28:24.149Z,97851.99
2022-12-22T02:31:53.389Z,97858.86
2022-12-22T02:35:15.251Z,97863.20
2022-12-22T02:38:55.982Z,97856.89
2022-12-22T02:42:32.570Z,97846.27
2022-12-22T02:46:03.231Z,97839.20
2022-12-22T02:49:27.985Z,97829.59
2022-12-22T02:52:54.017Z,97849.58
2022-12-22T02:56:21.102Z,97848.33
2022-12-22T02:59:43.165Z,97853.34
2022-12-22T03:03:05.074Z,97844.09
2022-12-22T03:06:27.194Z,97847.02
2022-12-22T03:09:49.293Z,97856.38
2022-12-22T03:13:11.137Z,97851.23
2022-12-22T03:16:33.315Z,97843.61
2022-12-22T03:19:55.539Z,97842.57
2022-12-22T03:23:23.419Z,97841.23
2022-12-22T03:26:27.842Z,97840.11
2022-12-22T03:29:31.087Z,97839.35
2022-12-22T03:32:34.332Z,97835.23
2022-12-22T03:35:37.593Z,97828.35
2022-12-22T03:38:40.858Z,97833.69
2022-12-22T03:42:02.682Z,97823.09
2022-12-22T03:45:25.132Z,97827.12
2022-12-22T03:48:28.337Z,97822.30
2022-12-22T03:51:33.053Z,97827.40
2022-12-22T03:54:36.339Z,97825.84
2022-12-22T03:57:39.541Z,97825.66
2022-12-22T04:00:42.771Z,97825.05
2022-12-22T04:03:46.138Z,97825.52
2022-12-22T04:06:49.506Z,97827.21
2022-12-22T04:10:11.434Z,97822.02
2022-12-22T04:13:14.696Z,97824.50
2022-12-22T04:16:17.969Z,97818.83
2022-12-22T04:19:21.404Z,97812.55
2022-12-22T04:22:24.622Z,97816.92
2022-12-22T04:25:29.607Z,97811.40
2022-12-22T04:28:32.869Z,97813.23
2022-12-22T04:31:36.243Z,97809.98
2022-12-22T04:34:39.452Z,97806.92
2022-12-22T04:37:42.689Z,97801.40
2022-12-22T04:40:45.926Z,97799.52
2022-12-22T04:43:49.148Z,97796.30
2022-12-22T04:46:52.349Z,97794.44
2022-12-22T04:49:55.868Z,97798.16
2022-12-22T04:52:59.052Z,97791.09
2022-12-22T04:56:07.746Z,97794.52
2022-12-22T04:59:10.913Z,97795.33
2022-12-22T05:02:14.311Z,97790.45
2022-12-22T05:05:17.620Z,97778.35
2022-12-22T05:08:20.822Z,97782.55
2022-12-22T05:11:24.015Z,97781.10
2022-12-22T05:14:27.246Z,97772.15
2022-12-22T05:17:30.511Z,97767.29
2022-12-22T05:20:36.324Z,97765.90
2022-12-22T05:23:40.174Z,97772.73
2022-12-22T05:26:43.390Z,97774.96
2022-12-22T05:29:46.633Z,97779.56
2022-12-22T05:32:49.887Z,97786.45
2022-12-22T05:35:53.032Z,97783.76
2022-12-22T05:38:56.200Z,97773.30
2022-12-22T05:41:59.424Z,97779.10
2022-12-22T05:45:17.761Z,97779.52
2022-12-22T05:48:26.766Z,97778.42
2022-12-22T05:51:32.885Z,97776.88
2022-12-22T05:54:36.089Z,97764.94
2022-12-22T05:57:39.580Z,97759.36
2022-12-22T06:00:42.801Z,97756.00
2022-12-22T06:03:46.050Z,97757.14
2022-12-22T06:06:49.303Z,97753.80
2022-12-22T06:09:52.565Z,97749.34
2022-12-22T06:12:55.813Z,97748.59
2022-12-22T06:15:59.169Z,97742.33
2022-12-22T06:19:02.510Z,97738.94
2022-12-22T06:22:05.783Z,97740.50
2022-12-22T06:25:15.352Z,97741.04
2022-12-22T06:28:21.190Z,97741.19
2022-12-22T06:31:25.044Z,97737.94
2022-12-22T06:34:28.358Z,97737.13
2022-12-22T06:37:31.903Z,97742.02
2022-12-22T06:40:35.155Z,97743.42
2022-12-22T06:43:38.376Z,97742.60
2022-12-22T06:46:41.696Z,97738.10
2022-12-22T06:49:44.942Z,97732.58
2022-12-22T06:52:48.220Z,97730.05
2022-12-22T06:55:51.438Z,97726.66
2022-12-22T06:58:55.075Z,97717.58
2022-12-22T07:01:58.489Z,97715.21
2022-12-22T07:05:02.145Z,97716.67
2022-12-22T07:08:08.773Z,97712.04
2022-12-22T07:11:13.024Z,97711.23
2022-12-22T07:14:25.696Z,97705.19
2022-12-22T07:17:29.455Z,97705.99
2022-12-22T07:20:32.626Z,97703.30
2022-12-22T07:23:36.787Z,97712.46
2022-12-22T07:26:40.058Z,97712.96
2022-12-22T07:29:43.782Z,97716.19
2022-12-22T07:32:47.014Z,97718.81
2022-12-22T07:36:04.112Z,97712.63
2022-12-22T07:39:07.798Z,97709.29
2022-12-22T07:42:32.663Z,97718.79
2022-12-22T07:45:36.612Z,97713.11
2022-12-22T07:48:58.354Z,97703.71
2022-12-22T07:52:01.746Z,97703.48
2022-12-22T07:55:07.839Z,97702.23
2022-12-22T07:58:11.117Z,97692.02
2022-12-22T08:01:14.385Z,97691.97
2022-12-22T08:04:18.278Z,97686.25
2022-12-22T08:07:21.480Z,97683.35
2022-12-22T08:10:24.733Z,97682.48
2022-12-22T08:13:28.000Z,97675.60
2022-12-22T08:16:31.489Z,97666.58
2022-12-22T08:19:34.747Z,97673.81
2022-12-22T08:22:37.999Z,97683.77
2022-12-22T08:25:41.670Z,97680.14
2022-12-22T08:28:54.461Z,97675.74
2022-12-22T08:31:58.467Z,97674.27
2022-12-22T08:35:01.833Z,97671.34
2022-12-22T08:38:06.057Z,97670.21
2022-12-22T08:41:13.411Z,97669.87
2022-12-22T08:44:28.890Z,97656.84
2022-12-22T08:47:32.215Z,97650.27
2022-12-22T08:50:35.570Z,97656.52
2022-12-22T08:54:03.969Z,97660.59
2022-12-22T08:57:02.047Z,97661.11
2022-12-22T09:00:06.818Z,97652.30
2022-12-22T09:03:10.235Z,97647.52
2022-12-22T09:06:13.715Z,97644.83
2022-12-22T09:09:17.804Z,97641.23
2022-12-22T09:12:21.141Z,97637.59
2022-12-22T09:15:24.544Z,97631.59
2022-12-22T09:18:27.824Z,97629.84
2022-12-22T09:21:31.048Z,97633.88
2022-12-22T09:24:34.459Z,97630.35
2022-12-22T09:27:37.680Z,97622.20
2022-12-22T09:30:40.953Z,97620.19
2022-12-22T09:33:44.142Z,97605.23
2022-12-22T09:36:47.774Z,97610.75
2022-12-22T09:39:51.234Z,97612.90
2022-12-22T09:42:54.419Z,97614.66
2022-12-22T09:45:58.629Z,97610.67
2022-12-22T09:49:02.615Z,97598.04
2022-12-22T09:52:06.568Z,97591.00
2022-12-22T09:55:23.752Z,97586.30
2022-12-22T09:58:34.505Z,97581.52
2022-12-22T10:01:40.757Z,97576.98
2022-12-22T10:05:08.211Z,97565.88
2022-12-22T10:08:13.869Z,97561.40
2022-12-22T10:11:18.736Z,97571.81
2022-12-22T10:14:25.776Z,97565.06
2022-12-22T10:17:33.733Z,97561.80
2022-12-22T10:20:39.844Z,97559.54
2022-12-22T10:23:48.717Z,97551.74
2022-12-22T10:26:57.432Z,97551.83
2022-12-22T10:30:24.164Z,97545.65
2022-12-22T10:33:34.088Z,97540.73
2022-12-22T10:36:38.793Z,97541.33
2022-12-22T10:39:42.239Z,97533.39
2022-12-22T10:42:52.730Z,97520.83
2022-12-22T10:45:58.400Z,97519.66
2022-12-22T10:49:10.089Z,97518.27
2022-12-22T10:52:29.663Z,97516.50
2022-12-22T10:55:36.136Z,97507.80
2022-12-22T10:59:17.113Z,97503.15
2022-12-22T11:02:38.422Z,97502.77
2022-12-22T11:05:45.064Z,97497.13
2022-12-22T11:08:51.636Z,97490.10
2022-12-22T11:12:06.360Z,97495.79
2022-12-22T11:15:24.005Z,97498.27
2022-12-22T11:18:56.480Z,97496.46
2022-12-22T11:22:07.514Z,97492.39
2022-12-22T11:25:31.979Z,97484.64
2022-12-22T11:28:59.402Z,97486.49
2022-12-22T11:32:33.618Z,97477.25
2022-12-22T11:36:02.149Z,97474.29
2022-12-22T11:39:20.503Z,97472.80
2022-12-22T11:42:32.578Z,97475.83
2022-12-22T11:45:43.132Z,97467.89
2022-12-22T11:48:55.927Z,97465.79
2022-12-22T11:52:01.866Z,97464.73
2022-12-22T11:55:17.359Z,97453.97
2022-12-22T11:58:42.425Z,97450.98
2022-12-22T12:02:20.655Z,97440.79
2022-12-22T12:05:27.032Z,97442.60
2022-12-22T12:08:57.708Z,97442.98
2022-12-22T12:12:16.651Z,97442.83
2022-12-22T12:15:38.308Z,97430.27
2022-12-22T12:19:04.822Z,97424.09
2022-12-22T12:22:48.324Z,97421.24
2022-12-22T12:26:10.009Z,97411.20
2022-12-22T12:29:24.330Z,97414.22
2022-12-22T12:32:38.485Z,97424.20
2022-12-22T12:35:59.783Z,97423.88
2022-12-22T12:39:17.981Z,97428.23
2022-12-22T12:42:40.756Z,97420.82
2022-12-22T12:45:49.092Z,97418.92
2022-12-22T12:48:52.363Z,97415.48
2022-12-22T12:51:55.889Z,97411.33
2022-12-22T12:55:32.779Z,97417.02
2022-12-22T12:58:39.299Z,97420.36
2022-12-22T13:01:42.583Z,97417.21
2022-12-22T13:05:04.882Z,97420.16
2022-12-22T13:08:21.231Z,97416.89
2022-12-22T13:12:10.579Z,97404.02
2022-12-22T13:15:01.451Z,97394.74
2022-12-22T13:18:29.448Z,97399.55
2022-12-22T13:21:52.880Z,97401.80
2022-12-22T13:24:58.092Z,97398.18
2022-12-22T13:28:03.948Z,97401.20
2022-12-22T13:31:17.801Z,97407.45
2022-12-22T13:35:28.953Z,97402.91
2022-12-22T13:38:37.094Z,97399.67
2022-12-22T13:41:43.559Z,97398.92
2022-12-22T13:44:47.198Z,97389.56
2022-12-22T13:47:50.934Z,97382.86
2022-12-22T13:51:01.313Z,97378.16
2022-12-22T13:54:18.168Z,97372.48
2022-12-22T13:57:22.419Z,97372.92
2022-12-22T14:00:28.710Z,97373.93
2022-12-22T14:03:58.808Z,97365.74
2022-12-22T14:06:55.765Z,97371.64
2022-12-22T14:09:59.067Z,97375.13
2022-12-22T14:13:06.765Z,97374.26
2022-12-22T14:16:14.333Z,97373.62
2022-12-22T14:19:18.676Z,97371.13
2022-12-22T14:22:38.579Z,97384.48
2022-12-22T14:25:44.835Z,97377.00
2022-12-22T14:28:53.299Z,97364.55
2022-12-22T14:32:00.315Z,97369.05
2022-12-22T14:35:14.418Z,97368.34
2022-12-22T14:38:24.021Z,97369.83
2022-12-22T14:41:43.649Z,97375.76
2022-12-22T14:44:48.412Z,97379.26
2022-12-22T14:47:53.868Z,97372.71
2022-12-22T14:50:57.439Z,97371.32
2022-12-22T14:54:03.061Z,97362.14
2022-12-22T14:57:16.595Z,97358.55
2022-12-22T15:00:23.283Z,97354.34
2022-12-22T15:03:38.768Z,97351.98
2022-12-22T15:06:45.655Z,97356.34
2022-12-22T15:10:14.682Z,97357.98
2022-12-22T15:13:24.174Z,97363.51
2022-12-22T15:16:27.897Z,97353.08
2022-12-22T15:19:34.070Z,97347.63
2022-12-22T15:22:37.335Z,97346.53
2022-12-22T15:25:40.552Z,97349.27
2022-12-22T15:28:43.771Z,97350.35
2022-12-22T15:31:47.263Z,97349.96
2022-12-22T15:34:50.535Z,97348.95
2022-12-22T15:37:55.982Z,97341.88
2022-12-22T15:41:01.512Z,97343.42
2022-12-22T15:44:04.739Z,97346.31
2022-12-22T15:47:11.445Z,97345.93
2022-12-22T15:50:25.168Z,97349.27
2022-12-22T15:53:28.492Z,97356.45
2022-12-22T15:56:33.618Z,97357.87
2022-12-22T15:59:37.184Z,97350.24
2022-12-22T16:02:40.603Z,97351.36
2022-12-22T16:05:45.644Z,97355.35
2022-12-22T16:08:54.497Z,97352.80
2022-12-22T16:11:58.167Z,97351.40
2022-12-22T16:15:02.093Z,97352.27
2022-12-22T16:18:06.503Z,97352.91
2022-12-22T16:21:18.985Z,97351.35
2022-12-22T16:24:30.385Z,97347.08
2022-12-22T16:27:35.668Z,97343.42
2022-12-22T16:30:39.367Z,97347.80
2022-12-22T16:33:42.567Z,97350.15
2022-12-22T16:36:45.755Z,97346.87
2022-12-22T16:39:49.001Z,97348.05
2022-12-22T16:46:28.836Z,97346.50
2022-12-22T16:49:32.119Z,97342.45
2022-12-22T16:52:41.196Z,97341.45
2022-12-22T16:55:44.521Z,97344.18
2022-12-22T16:58:48.731Z,97341.61
2022-12-22T17:01:57.545Z,97336.33
2022-12-22T17:05:02.650Z,97333.06
2022-12-22T17:08:07.962Z,97336.41
2022-12-22T17:11:19.994Z,97336.49
2022-12-22T17:14:33.192Z,97338.82
2022-12-22T17:17:41.978Z,97340.01
2022-12-22T17:20:47.369Z,97338.14
2022-12-22T17:23:52.527Z,97335.34
2022-12-22T17:27:01.159Z,97333.77
2022-12-22T17:30:05.183Z,97334.24
2022-12-22T17:33:15.912Z,97329.18
2022-12-22T17:36:30.670Z,97329.41
2022-12-22T17:39:38.590Z,97322.71
2022-12-22T17:42:42.064Z,97318.36
2022-12-22T17:45:46.132Z,97321.15
2022-12-22T17:48:49.812Z,97317.34
2022-12-22T17:51:53.057Z,97315.00
2022-12-22T17:54:56.434Z,97310.79
2022-12-22T17:57:59.651Z,97315.96
2022-12-22T18:01:02.852Z,97314.71
2022-12-22T18:04:09.907Z,97314.88
2022-12-22T18:07:15.675Z,97313.39
2022-12-22T18:10:28.534Z,97313.23
2022-12-22T18:13:32.373Z,97311.77
2022-12-22T18:16:35.726Z,97312.86
2022-12-22T18:19:38.955Z,97312.31
2022-12-22T18:22:42.984Z,97308.26
2022-12-22T18:25:46.528Z,97304.91
2022-12-22T18:28:50.361Z,97301.16
2022-12-22T18:31:53.633Z,97298.89
2022-12-22T18:34:56.945Z,97295.22
2022-12-22T18:38:00.314Z,97297.48
2022-12-22T18:41:03.678Z,97292.58
2022-12-22T18:44:17.453Z,97292.24
2022-12-22T18:47:20.692Z,97291.16
2022-12-22T18:50:27.617Z,97292.41
2022-12-22T18:53:31.809Z,97291.40
2022-12-22T18:56:35.004Z,97289.77
2022-12-22T18:59:38.351Z,97284.08
2022-12-22T19:02:42.248Z,97279.48
2022-12-22T19:05:47.678Z,97286.03
2022-12-22T19:08:51.326Z,97289.15
2022-12-22T19:11:54.627Z,97282.38
2022-12-22T19:15:04.641Z,97285.73
2022-12-22T19:18:18.696Z,97282.77
2022-12-22T19:21:26.116Z,97281.46
2022-12-22T19:24:29.454Z,97282.79
2022-12-22T19:27:33.714Z,97276.64
2022-12-22T19:30:37.033Z,97278.36
2022-12-22T19:33:43.904Z,97278.20
2022-12-22T19:37:51.501Z,97276.41
2022-12-22T19:40:59.559Z,97275.33
2022-12-22T19:44:03.871Z,97274.46
2022-12-22T19:47:17.266Z,97281.79
2022-12-22T19:50:23.571Z,97278.36
2022-12-22T19:53:28.065Z,97279.30
2022-12-22T19:56:31.389Z,97275.88
2022-12-22T19:59:41.147Z,97278.66
2022-12-22T20:02:45.930Z,97281.64
2022-12-22T20:05:49.586Z,97278.69
2022-12-22T20:08:52.893Z,97280.39
2022-12-22T20:11:56.164Z,97283.67
2022-12-22T20:15:00.257Z,97279.23
2022-12-22T20:18:13.556Z,97281.64
2022-12-22T20:21:29.646Z,97284.21
2022-12-22T20:24:34.493Z,97283.83
2022-12-22T20:27:37.690Z,97284.29
2022-12-22T20:30:41.644Z,97278.91
2022-12-22T20:33:45.321Z,97275.42
2022-12-22T20:36:48.565Z,97276.74
2022-12-22T20:39:51.838Z,97278.38
2022-12-22T20:42:56.717Z,97276.73
2022-12-22T20:46:24.939Z,97274.64
2022-12-22T20:49:28.412Z,97289.73
2022-12-22T20:52:31.630Z,97291.37
2022-12-22T20:55:34.837Z,97289.19
2022-12-22T20:58:38.076Z,97291.52
2022-12-22T21:01:41.765Z,97293.77
2022-12-22T21:04:45.364Z,97292.21
2022-12-22T21:07:49.615Z,97292.53
2022-12-22T21:10:54.584Z,97291.60
2022-12-22T21:13:59.084Z,97293.70
2022-12-22T21:17:02.454Z,97297.58
2022-12-22T21:20:06.375Z,97302.57
2022-12-22T21:23:09.703Z,97300.08
2022-12-22T21:26:19.038Z,97294.02
2022-12-22T21:29:26.256Z,97291.14
2022-12-22T21:32:30.692Z,97290.83
2022-12-22T21:35:36.528Z,97295.34
2022-12-22T21:38:39.788Z,97292.61
2022-12-22T21:42:04.437Z,97293.09
2022-12-22T21:45:12.314Z,97297.38
2022-12-22T21:48:18.978Z,97297.30
2022-12-22T21:51:22.150Z,97297.85
2022-12-22T21:54:26.712Z,97299.64
2022-12-22T21:57:29.948Z,97301.27
2022-12-22T22:00:34.713Z,97302.90
2022-12-22T22:03:37.917Z,97302.36
2022-12-22T22:06:41.248Z,97302.67
2022-12-22T22:09:44.573Z,97307.65
2022-12-22T22:12:47.757Z,97307.36
2022-12-22T22:15:51.216Z,97306.73
2022-12-22T22:18:54.517Z,97308.14
2022-12-22T22:21:57.778Z,97309.02
2022-12-22T22:25:01.023Z,97308.55
2022-12-22T22:28:04.587Z,97304.19
2022-12-22T22:31:11.791Z,97306.13
2022-12-22T22:34:16.040Z,97304.95
2022-12-22T22:37:19.766Z,97304.41
2022-12-22T22:40:23.697Z,97305.48
2022-12-22T22:43:26.882Z,97307.50
2022-12-22T22:46:30.212Z,97303.61
2022-12-22T22:49:33.500Z,97304.00
2022-12-22T22:52:37.592Z,97308.97
2022-12-22T22:55:40.946Z,97307.17
2022-12-22T22:58:44.155Z,97308.95
2022-12-22T23:01:47.457Z,97306.92
2022-12-22T23:04:50.772Z,97305.98
2022-12-22T23:07:54.037Z,97306.68
2022-12-22T23:10:57.962Z,97305.84
2022-12-22T23:14:01.181Z,97301.23
2022-12-22T23:17:04.567Z,97306.05
2022-12-22T23:20:08.876Z,97308.16
2022-12-22T23:23:12.233Z,97307.14
2022-12-22T23:26:15.429Z,97306.73
2022-12-22T23:29:18.720Z,97303.33
2022-12-22T23:32:22.891Z,97313.83
2022-12-22T23:35:26.127Z,97314.99
2022-12-22T23:38:29.327Z,97313.98
2022-12-22T23:41:32.800Z,97315.77
2022-12-22T23:44:36.033Z,97316.94
2022-12-22T23:47:39.257Z,97321.77
2022-12-22T23:50:45.953Z,97324.40
2022-12-22T23:53:49.307Z,97322.23
2022-12-22T23:56:52.754Z,97321.13
2022-12-22T23:59:55.956Z,97320.89
